Terminal Aerodrome Forecast
Issued by NWS

Home | Current Version | Previous Version | Text Only | Print | Product List | Glossary On
Versions: 1 2 3 4 5 6 7 8 9 10 11 12 13 14 15 16 17 18 19 20 21 22 23 24 25 26 27 28 29 30 31 32 33 34 35
000
FTUS41 KRNK 272342
TAFBCB
TAF
KBCB 272342Z 2800/2824 32015G25KT P6SM SCT035
      TEMPO 2800/2804 BKN035
     FM280400 32010G20KT P6SM BKN028
     FM281400 33007KT P6SM SKC
     FM282300 33004KT P6SM SCT250=

USA.gov is the U.S. government's official web portal to all federal, state and local government web resources and services.